»·PEaware :: N102MR KOLM-KYKM

N102MR :: KOLM-KYKM

FLIGHT INFORMATION

Flight Status: Arrived
Operator: Privately registered:
United States
More flights under this callsign
Pilot: Michael R. (16974)
Aircraft: CESSNA 172 SKYHAWK
(C172)
More flights by this aircraft type
Origin: KOLM Olympia
United States
Destination: KYKM Yakima Air Term/Mcallister
United States
More flights between these airports :: More routes between these airports
Route: +OLM V204 TUDGY
File this flight plan on PilotEdge
Remarks:
Altitude:
(Current/Filed)
10,000ft
Speed:
(Current/Filed)
100kts
Departed: 06-Dec-17 09:51 PM
Arrived: 06-Dec-17 11:08 PM
Distance/Time
Traveled:
100nm/1:17
Distance/Time
To Go:
Arrived

Flight Plot

Page will automatically refresh every two minutes.

Flight plan parsing failed; only flown route is shown


Map Options




Map Legend


Flown Route
Filed Route
Departure Airport
Arrival Airport
Navaid (VOR, NDB)
Fix

Horizontal Profiles

Position Reports

Time Latitude Longitude Heading Altitude Ground
Speed
06-Dec-17 21:30 46.976402 -122.900004 102 197ft 0kts
06-Dec-17 21:31 46.976402 -122.900004 102 197ft 0kts
06-Dec-17 21:32 46.976402 -122.900004 102 197ft 0kts
06-Dec-17 21:33 46.976402 -122.900004 102 197ft 0kts
06-Dec-17 21:34 46.976402 -122.900004 102 197ft 0kts
06-Dec-17 21:35 46.976402 -122.900004 102 197ft 0kts
06-Dec-17 21:36 46.976402 -122.900004 102 197ft 0kts
06-Dec-17 21:37 46.976402 -122.900004 102 197ft 0kts
06-Dec-17 21:38 46.976402 -122.900004 102 197ft 0kts
06-Dec-17 21:39 46.976402 -122.900004 102 197ft 0kts
06-Dec-17 21:40 46.976402 -122.900004 102 197ft 0kts
06-Dec-17 21:41 46.976402 -122.900004 102 197ft 0kts
06-Dec-17 21:42 46.976402 -122.900004 102 197ft 0kts
06-Dec-17 21:43 46.976402 -122.900004 102 197ft 0kts
06-Dec-17 21:44 46.976402 -122.900004 102 197ft 0kts
06-Dec-17 21:45 46.976402 -122.900004 102 197ft 0kts
06-Dec-17 21:46 46.976402 -122.900004 102 197ft 0kts
06-Dec-17 21:47 46.976402 -122.900004 102 197ft 0kts
06-Dec-17 21:48 46.975561 -122.899347 175 197ft 0kts
06-Dec-17 21:49 46.976041 -122.900515 359 196ft 0kts
06-Dec-17 21:50 46.976060 -122.900517 351 196ft 2kts
06-Dec-17 21:51 46.976000 -122.901643 279 195ft 0kts
06-Dec-17 21:52 46.976000 -122.901643 279 195ft 0kts
06-Dec-17 21:53 46.976000 -122.901643 279 195ft 0kts
06-Dec-17 21:54 46.976005 -122.901695 278 195ft 3kts
06-Dec-17 21:55 46.975561 -122.902801 190 196ft 0kts
06-Dec-17 21:56 46.965285 -122.906071 188 479ft 71kts
06-Dec-17 21:57 46.945347 -122.899013 144 1074ft 85kts
06-Dec-17 21:58 46.930780 -122.872472 97 1584ft 90kts
06-Dec-17 21:59 46.926439 -122.836245 98 2081ft 90kts
06-Dec-17 22:00 46.922038 -122.800385 98 2576ft 88kts
06-Dec-17 22:01 46.917656 -122.765332 98 3070ft 86kts
06-Dec-17 22:02 46.915111 -122.730834 97 3563ft 85kts
06-Dec-17 22:03 46.909377 -122.697453 105 4057ft 84kts
06-Dec-17 22:04 46.901030 -122.665838 120 4550ft 83kts
06-Dec-17 22:05 46.890133 -122.636816 115 5038ft 80kts
06-Dec-17 22:07 46.879937 -122.606556 113 5523ft 89kts
06-Dec-17 22:08 46.869195 -122.573101 113 6026ft 92kts
06-Dec-17 22:09 46.858456 -122.538971 113 6524ft 92kts
06-Dec-17 22:10 46.847917 -122.505273 112 7018ft 91kts
06-Dec-17 22:11 46.837527 -122.471893 112 7513ft 90kts
06-Dec-17 22:12 46.827229 -122.438847 113 8008ft 88kts
06-Dec-17 22:13 46.817143 -122.406527 113 8501ft 86kts
06-Dec-17 22:14 46.807354 -122.375188 113 8990ft 83kts
06-Dec-17 22:15 46.798084 -122.345553 114 9472ft 79kts
06-Dec-17 22:16 46.789228 -122.317274 114 9957ft 75kts
06-Dec-17 22:16 46.780692 -122.290060 114 10029ft 102kts
06-Dec-17 22:18 46.765718 -122.242436 114 10031ft 114kts
06-Dec-17 22:18 46.754542 -122.206918 113 10030ft 116kts
06-Dec-17 22:19 46.741154 -122.164295 114 10030ft 115kts
06-Dec-17 22:21 46.725618 -122.115011 114 10030ft 114kts
06-Dec-17 22:21 46.714708 -122.080467 114 10026ft 106kts
06-Dec-17 22:23 46.702113 -122.036665 112 10031ft 100kts
06-Dec-17 22:23 46.692889 -122.005112 113 10031ft 103kts
06-Dec-17 22:24 46.681111 -121.966859 114 10030ft 104kts
06-Dec-17 22:25 46.668983 -121.928298 114 10030ft 104kts
06-Dec-17 22:26 46.656771 -121.889774 114 10030ft 104kts
06-Dec-17 22:27 46.644492 -121.851322 114 10030ft 104kts
06-Dec-17 22:28 46.632146 -121.812842 114 10030ft 104kts
06-Dec-17 22:29 46.619933 -121.774365 114 10030ft 104kts
06-Dec-17 22:30 46.607651 -121.735885 114 10029ft 105kts
06-Dec-17 22:31 46.595108 -121.696727 113 10030ft 107kts
06-Dec-17 22:32 46.582377 -121.657018 113 10030ft 108kts
06-Dec-17 22:33 46.578449 -121.614314 89 10030ft 108kts
06-Dec-17 22:34 46.578090 -121.570476 89 10030ft 108kts
06-Dec-17 22:35 46.577877 -121.527347 89 10132ft 100kts
06-Dec-17 22:36 46.577724 -121.488544 89 10261ft 101kts
06-Dec-17 22:37 46.577550 -121.446485 89 10259ft 106kts
06-Dec-17 22:38 46.577360 -121.403233 89 10259ft 108kts
06-Dec-17 22:39 46.577154 -121.359031 89 10259ft 111kts
06-Dec-17 22:40 46.576926 -121.314533 89 10258ft 109kts
06-Dec-17 22:41 46.576691 -121.270971 89 10258ft 107kts
06-Dec-17 22:42 46.576609 -121.227980 89 10259ft 105kts
06-Dec-17 22:43 46.576488 -121.185551 90 10259ft 104kts
06-Dec-17 22:44 46.576225 -121.143675 90 10259ft 103kts
06-Dec-17 22:45 46.575950 -121.101832 90 10259ft 103kts
06-Dec-17 22:46 46.575661 -121.059949 90 10259ft 103kts
06-Dec-17 22:47 46.575358 -121.018191 90 10259ft 103kts
06-Dec-17 22:48 46.575039 -120.976495 90 10258ft 103kts
06-Dec-17 22:49 46.568370 -120.935740 105 10260ft 105kts
06-Dec-17 22:50 46.559920 -120.894192 105 10259ft 108kts
06-Dec-17 22:51 46.550335 -120.849123 106 9913ft 119kts
06-Dec-17 22:52 46.540748 -120.802648 106 9357ft 120kts
06-Dec-17 22:53 46.531305 -120.755348 106 9008ft 115kts
06-Dec-17 22:54 46.520640 -120.712686 109 9000ft 112kts
06-Dec-17 22:55 46.509008 -120.670150 108 8998ft 113kts
06-Dec-17 22:56 46.497978 -120.627237 107 8997ft 113kts
06-Dec-17 22:57 46.486743 -120.583711 107 9002ft 117kts
06-Dec-17 22:58 46.474994 -120.538017 108 8425ft 131kts
06-Dec-17 22:59 46.462294 -120.488854 108 7304ft 134kts
06-Dec-17 23:00 46.448824 -120.436441 108 5811ft 141kts
06-Dec-17 23:01 46.435356 -120.383073 108 4328ft 140kts
06-Dec-17 23:02 46.423828 -120.336932 108 3984ft 110kts
06-Dec-17 23:03 46.420127 -120.296382 36 3980ft 105kts
06-Dec-17 23:04 46.448160 -120.274687 23 3816ft 117kts
06-Dec-17 23:05 46.477238 -120.259884 329 3806ft 110kts
06-Dec-17 23:06 46.501287 -120.287121 325 3801ft 110kts
06-Dec-17 23:07 46.516527 -120.324907 292 3808ft 109kts
06-Dec-17 23:08 46.527352 -120.369246 289 3357ft 122kts
06-Dec-17 23:09 46.538468 -120.416521 288 2703ft 124kts
06-Dec-17 23:10 46.548145 -120.460763 287 2079ft 107kts
06-Dec-17 23:11 46.557864 -120.500746 291 1523ft 103kts
06-Dec-17 23:12 46.564397 -120.527019 289 1153ft 53kts
06-Dec-17 23:13 46.568255 -120.542109 307 1064ft 14kts
06-Dec-17 23:14 46.570114 -120.542731 294 1069ft 12kts
06-Dec-17 23:15 46.570184 -120.542937 297 1069ft 0kts
06-Dec-17 23:16 46.570184 -120.542937 297 1069ft 0kts

Navigation Log

Ident Type
Flight plan parsing failed, navigation log unavailable